Time;durP1;ratioP1;P1;durP2;ratioP2;P2;SDS_P1;SDS_P2;PMS_P1;PMS_P2;Temp;Humidity;BMP_temperature;BMP_pressure;BME280_temperature;BME280_humidity;BME280_pressure;Samples;Min_cycle;Max_cycle;Signal;HPM_P1;HPM_P2
2024/01/02 00:00:14;;;;;;;;;0.00;0.00;;;;;10.85;97.20;99934.31;4978072;28;45461;-56
2024/01/02 00:02:39;;;;;;;;;0.67;0.00;;;;;10.91;97.81;99948.75;4977115;28;46151;-56
2024/01/02 00:05:05;;;;;;;;;0.00;0.00;;;;;10.92;97.93;99947.78;4976096;28;45324;-50
2024/01/02 00:07:30;;;;;;;;;0.00;0.00;;;;;10.88;98.33;99933.16;4977485;28;45438;-54
2024/01/02 00:09:56;;;;;;;;;2.00;0.00;;;;;10.93;97.71;99936.13;4977582;28;45410;-56
2024/01/02 00:12:21;;;;;;;;;1.00;0.00;;;;;10.95;97.75;99944.75;4976828;28;49038;-56
2024/01/02 00:14:46;;;;;;;;;0.00;0.00;;;;;10.96;98.60;99946.44;4977052;28;45446;-56
2024/01/02 00:17:12;;;;;;;;;0.00;0.00;;;;;10.96;98.45;99925.16;4977512;28;45331;-56
2024/01/02 00:19:37;;;;;;;;;0.00;0.00;;;;;10.88;98.50;99914.53;4976343;28;45264;-44
2024/01/02 00:22:03;;;;;;;;;0.00;0.00;;;;;10.98;97.94;99912.50;4977055;28;46307;-47
2024/01/02 00:24:28;;;;;;;;;0.00;0.00;;;;;10.99;98.70;99914.16;4977038;28;45269;-57
2024/01/02 00:26:54;;;;;;;;;0.33;0.00;;;;;11.00;98.24;99899.88;4976967;28;45355;-54
2024/01/02 00:29:19;;;;;;;;;0.00;0.00;;;;;10.99;98.12;99900.84;4977415;28;45418;-53
2024/01/02 00:31:44;;;;;;;;;0.00;0.00;;;;;11.02;98.61;99889.88;4976943;28;45723;-44
2024/01/02 00:34:12;;;;;;;;;0.00;0.00;;;;;11.03;98.78;99885.38;4976889;28;45316;-47
2024/01/02 00:36:37;;;;;;;;;0.33;0.00;;;;;11.05;98.49;99894.84;4977052;28;45356;-48
2024/01/02 00:39:02;;;;;;;;;2.00;0.00;;;;;11.08;98.62;99880.34;4977194;28;45331;-50
2024/01/02 00:41:28;;;;;;;;;0.00;0.00;;;;;11.08;98.26;99859.94;4975541;28;46143;-44
2024/01/02 00:43:53;;;;;;;;;0.00;0.00;;;;;11.09;98.86;99850.94;4976767;28;45473;-55
2024/01/02 00:46:18;;;;;;;;;0.00;0.00;;;;;11.12;98.31;99849.75;4976786;28;45795;-56
2024/01/02 00:48:44;;;;;;;;;0.00;0.00;;;;;11.10;97.87;99836.63;4976896;28;45481;-53
2024/01/02 00:51:11;;;;;;;;;0.00;0.00;;;;;11.12;97.95;99818.63;4976528;28;46588;-55
2024/01/02 00:53:37;;;;;;;;;0.00;0.00;;;;;11.04;97.77;99815.16;4976770;28;45437;-54
2024/01/02 00:56:03;;;;;;;;;0.67;0.00;;;;;11.13;98.27;99832.78;4976139;28;45948;-55
2024/01/02 00:58:28;;;;;;;;;1.00;0.00;;;;;11.15;98.95;99817.47;4975152;28;45346;-54
2024/01/02 01:00:54;;;;;;;;;2.00;0.00;;;;;11.17;98.36;99826.13;4975949;28;46132;-43
2024/01/02 01:03:19;;;;;;;;;0.00;0.00;;;;;11.18;98.63;99828.59;4976180;28;45295;-45
2024/01/02 01:05:44;;;;;;;;;1.00;0.00;;;;;11.22;98.62;99810.44;4976417;28;45541;-43
2024/01/02 01:08:10;;;;;;;;;1.00;0.00;;;;;11.23;98.27;99820.91;4976495;28;45407;-44
2024/01/02 01:10:35;;;;;;;;;0.00;0.00;;;;;11.23;98.59;99809.44;4976167;28;46211;-44
2024/01/02 01:13:00;;;;;;;;;1.00;1.00;;;;;11.24;97.65;99801.28;4976545;28;45403;-56
2024/01/02 01:15:26;;;;;;;;;0.00;0.00;;;;;11.27;99.12;99812.59;4976614;28;45903;-46
2024/01/02 01:17:51;;;;;;;;;0.00;0.00;;;;;11.27;98.46;99791.28;4977056;28;45430;-49
2024/01/02 01:20:16;;;;;;;;;1.00;0.00;;;;;11.15;98.62;99770.38;4976067;28;46359;-44
2024/01/02 01:22:42;;;;;;;;;0.00;0.00;;;;;11.25;97.49;99783.50;4976243;28;45378;-53
2024/01/02 01:25:07;;;;;;;;;0.00;0.00;;;;;11.22;98.70;99773.19;4976573;28;45283;-46
2024/01/02 01:27:32;;;;;;;;;0.00;0.00;;;;;11.26;99.02;99781.66;4976604;28;45550;-51
2024/01/02 01:29:58;;;;;;;;;1.00;0.00;;;;;11.22;99.70;99774.00;4977063;28;45418;-43
2024/01/02 01:32:23;;;;;;;;;0.00;0.00;;;;;11.16;98.49;99749.91;4979525;28;45450;-43
2024/01/02 01:34:49;;;;;;;;;0.00;0.00;;;;;11.26;99.03;99763.84;4979555;28;45673;-42
2024/01/02 01:37:14;;;;;;;;;0.00;0.00;;;;;11.24;98.12;99758.69;4980003;28;45270;-42
2024/01/02 01:39:39;;;;;;;;;0.00;0.00;;;;;11.26;99.02;99765.69;4979404;28;46348;-54
2024/01/02 01:42:05;;;;;;;;;0.00;0.00;;;;;11.25;99.08;99756.88;4979494;28;45459;-46
2024/01/02 01:44:30;;;;;;;;;0.00;0.00;;;;;11.23;99.81;99759.69;4979826;28;45327;-43
2024/01/02 01:46:56;;;;;;;;;0.00;0.00;;;;;11.24;100.00;99765.84;4979799;28;45401;-43
2024/01/02 01:49:22;;;;;;;;;0.00;0.00;;;;;11.23;99.02;99750.88;4979403;28;46010;-43
2024/01/02 01:51:50;;;;;;;;;1.67;0.00;;;;;11.21;99.28;99763.53;4979486;28;45274;-44
2024/01/02 01:54:17;;;;;;;;;0.00;0.00;;;;;11.20;99.09;99770.66;4979462;28;45362;-43
2024/01/02 01:56:43;;;;;;;;;0.00;0.00;;;;;11.26;99.31;99747.88;4979272;28;45416;-42
2024/01/02 01:59:11;;;;;;;;;0.00;0.00;;;;;11.27;98.87;99762.00;4979233;28;46472;-49
2024/01/02 02:01:38;;;;;;;;;0.00;0.00;;;;;11.23;100.00;99759.69;4979356;28;45522;-53
2024/01/02 02:04:03;;;;;;;;;0.00;0.00;;;;;11.22;100.00;99754.53;4979239;28;45286;-47
2024/01/02 02:06:29;;;;;;;;;0.00;0.00;;;;;11.24;100.00;99745.38;4979604;28;45442;-44
2024/01/02 02:08:54;;;;;;;;;0.00;0.00;;;;;11.27;100.00;99756.69;4979234;28;46008;-52
2024/01/02 02:11:20;;;;;;;;;0.00;0.00;;;;;11.28;100.00;99755.66;4978906;28;45772;-43
2024/01/02 02:13:47;;;;;;;;;0.00;0.00;;;;;11.24;100.00;99764.00;4978992;28;45421;-44
2024/01/02 02:16:16;;;;;;;;;0.00;0.00;;;;;11.23;100.00;99749.03;4979062;28;45436;-42
2024/01/02 02:18:42;;;;;;;;;0.00;0.00;;;;;11.24;100.00;99763.16;4978755;28;45351;-43
2024/01/02 02:21:07;;;;;;;;;0.00;0.00;;;;;11.24;100.00;99758.69;4978980;28;45344;-43
2024/01/02 02:23:33;;;;;;;;;0.00;0.00;;;;;11.23;100.00;99734.91;4979080;28;45306;-44
2024/01/02 02:25:58;;;;;;;;;0.00;0.00;;;;;11.24;100.00;99761.34;4979257;28;45435;-44
2024/01/02 02:28:23;;;;;;;;;1.33;0.00;;;;;11.27;100.00;99759.34;4978499;28;45279;-52
2024/01/02 02:30:49;;;;;;;;;0.00;0.00;;;;;11.28;100.00;99761.00;4978731;28;45299;-55
2024/01/02 02:33:14;;;;;;;;;0.00;0.00;;;;;11.28;100.00;99750.34;4979297;28;45335;-52
2024/01/02 02:35:39;;;;;;;;;0.00;0.00;;;;;11.29;100.00;99750.16;4979121;28;45359;-48
2024/01/02 02:38:04;;;;;;;;;1.00;0.00;;;;;11.20;100.00;99736.06;4979092;28;45457;-56
2024/01/02 02:40:30;;;;;;;;;1.00;0.00;;;;;11.33;100.00;99747.97;4978738;28;45457;-44
2024/01/02 02:42:55;;;;;;;;;0.00;0.00;;;;;11.32;100.00;99751.66;4977647;28;45508;-42
2024/01/02 02:45:20;;;;;;;;;0.00;0.00;;;;;11.31;100.00;99750.81;4979099;28;45339;-46
2024/01/02 02:47:46;;;;;;;;;0.00;0.00;;;;;11.35;100.00;99730.00;4978458;28;45452;-43
2024/01/02 02:50:11;;;;;;;;;0.00;0.00;;;;;11.28;100.00;99723.72;4978656;28;45376;-42
2024/01/02 02:52:36;;;;;;;;;0.00;0.00;;;;;11.36;99.87;99739.66;4978778;28;45481;-43
2024/01/02 02:55:02;;;;;;;;;0.00;0.00;;;;;11.39;100.00;99732.13;4978831;28;45409;-43
2024/01/02 02:57:28;;;;;;;;;0.67;0.00;;;;;11.39;100.00;99740.13;4978262;28;46210;-55
2024/01/02 02:59:53;;;;;;;;;0.00;0.00;;;;;11.42;100.00;99744.28;4976914;28;45313;-49
2024/01/02 03:02:18;;;;;;;;;0.00;0.00;;;;;11.42;100.00;99738.97;4978452;28;45327;-52
2024/01/02 03:04:44;;;;;;;;;0.00;0.00;;;;;11.43;100.00;99730.78;4978473;28;45338;-51
2024/01/02 03:07:11;;;;;;;;;0.00;0.00;;;;;11.41;100.00;99724.78;4978299;28;45999;-44
2024/01/02 03:09:37;;;;;;;;;1.67;0.00;;;;;11.42;99.89;99734.47;4978193;28;45407;-49
2024/01/02 03:12:03;;;;;;;;;0.00;0.00;;;;;11.46;100.00;99740.22;4978082;28;45470;-50
2024/01/02 03:14:28;;;;;;;;;0.00;0.00;;;;;11.45;100.00;99728.75;4978371;28;45389;-52
2024/01/02 03:16:54;;;;;;;;;0.00;0.00;;;;;11.46;100.00;99735.75;4977925;28;46256;-51
2024/01/02 03:19:19;;;;;;;;;1.00;0.00;;;;;11.47;100.00;99731.25;4976754;28;45450;-51
2024/01/02 03:21:44;;;;;;;;;1.00;0.00;;;;;11.49;100.00;99726.56;4978243;28;45311;-55
2024/01/02 03:24:10;;;;;;;;;0.00;0.00;;;;;11.48;100.00;99723.09;4978224;28;45308;-54
2024/01/02 03:26:35;;;;;;;;;0.00;0.00;;;;;11.49;99.90;99727.41;4977737;28;50207;-55
2024/01/02 03:29:00;;;;;;;;;0.00;0.00;;;;;11.46;100.00;99718.94;4978108;28;45455;-56
2024/01/02 03:31:26;;;;;;;;;1.00;0.00;;;;;11.49;100.00;99721.25;4977905;28;45414;-46
2024/01/02 03:33:51;;;;;;;;;0.00;0.00;;;;;11.49;100.00;99724.72;4977998;28;45493;-55
2024/01/02 03:36:20;;;;;;;;;1.67;0.00;;;;;11.48;100.00;99722.25;4977577;28;47330;-56
2024/01/02 03:38:50;;;;;;;;;0.00;0.00;;;;;11.50;100.00;99720.22;4977920;28;45353;-56
2024/01/02 03:41:15;;;;;;;;;0.00;0.00;;;;;11.48;99.31;99696.44;4977723;28;45522;-56
2024/01/02 03:43:40;;;;;;;;;0.00;0.00;;;;;11.52;99.31;99712.91;4977784;28;45441;-56
2024/01/02 03:46:06;;;;;;;;;0.00;0.00;;;;;11.53;99.27;99695.09;4977639;28;46129;-55
2024/01/02 03:48:32;;;;;;;;;0.00;0.00;;;;;11.53;99.79;99713.72;4977584;28;45300;-54
2024/01/02 03:50:57;;;;;;;;;0.33;0.00;;;;;11.50;99.55;99685.59;4977765;28;45409;-56
2024/01/02 03:53:23;;;;;;;;;1.00;0.00;;;;;11.51;99.60;99684.63;4977526;28;45708;-56
2024/01/02 03:55:48;;;;;;;;;0.00;0.00;;;;;11.47;99.15;99680.66;4977416;28;46200;-47
2024/01/02 03:58:13;;;;;;;;;0.00;0.00;;;;;11.47;99.63;99672.66;4977665;28;45855;-55
2024/01/02 04:00:39;;;;;;;;;0.00;0.00;;;;;11.49;99.35;99682.13;4977395;28;45443;-52
2024/01/02 04:03:06;;;;;;;;;0.00;0.00;;;;;11.49;99.05;99682.13;4977789;28;45454;-52
2024/01/02 04:05:31;;;;;;;;;0.00;0.00;;;;;11.49;99.26;99666.13;4977609;28;45388;-51
2024/01/02 04:07:56;;;;;;;;;0.00;0.00;;;;;11.47;99.63;99673.50;4977296;28;45477;-55
2024/01/02 04:10:22;;;;;;;;;0.00;0.00;;;;;11.46;99.51;99686.97;4977723;28;45410;-48
2024/01/02 04:12:47;;;;;;;;;1.00;0.00;;;;;11.44;99.45;99694.31;4977307;28;45451;-50
2024/01/02 04:15:12;;;;;;;;;0.00;0.00;;;;;11.39;99.76;99689.53;4976896;28;52453;-45
2024/01/02 04:17:38;;;;;;;;;0.00;0.00;;;;;11.41;99.99;99708.81;4977217;28;45251;-46
2024/01/02 04:20:04;;;;;;;;;0.00;0.00;;;;;11.39;100.00;99700.19;4977497;28;45308;-44
2024/01/02 04:22:29;;;;;;;;;0.00;0.00;;;;;11.26;100.00;99683.97;4977647;28;45223;-55
2024/01/02 04:24:54;;;;;;;;;0.00;0.00;;;;;11.38;99.46;99706.53;4977129;28;49406;-52
2024/01/02 04:27:20;;;;;;;;;0.00;0.00;;;;;11.39;100.00;99713.50;4977202;28;45197;-54
2024/01/02 04:29:45;;;;;;;;;0.67;0.00;;;;;11.38;99.72;99708.38;4977257;28;45268;-55
2024/01/02 04:32:10;;;;;;;;;0.00;0.00;;;;;11.35;100.00;99701.53;4977491;28;45609;-51
2024/01/02 04:34:36;;;;;;;;;0.00;0.00;;;;;11.32;100.00;99683.25;4976671;28;52665;-54
2024/01/02 04:37:01;;;;;;;;;1.00;0.00;;;;;11.33;99.87;99708.03;4976938;28;45374;-53
2024/01/02 04:39:27;;;;;;;;;0.00;0.00;;;;;11.33;100.00;99710.69;4977204;28;45369;-44
2024/01/02 04:41:52;;;;;;;;;0.00;0.00;;;;;11.31;99.68;99702.06;4977099;28;45522;-43
2024/01/02 04:44:18;;;;;;;;;0.00;0.00;;;;;11.28;99.17;99686.44;4976742;28;46158;-42
2024/01/02 04:46:43;;;;;;;;;0.00;0.00;;;;;11.27;100.00;99690.94;4976884;28;45444;-52
2024/01/02 04:49:08;;;;;;;;;0.00;0.00;;;;;11.24;99.99;99688.63;4976892;28;45352;-43
2024/01/02 04:51:34;;;;;;;;;1.00;1.00;;;;;11.26;99.56;99680.50;4977423;28;45311;-48
2024/01/02 04:53:59;;;;;;;;;1.67;0.00;;;;;11.22;100.00;99686.16;4977034;28;46116;-56
2024/01/02 04:56:25;;;;;;;;;0.00;0.00;;;;;11.23;99.53;99692.31;4975562;28;45438;-55
2024/01/02 04:58:50;;;;;;;;;0.00;0.00;;;;;11.22;99.66;99701.31;4976734;28;45596;-52
2024/01/02 05:01:15;;;;;;;;;0.00;0.00;;;;;11.17;99.78;99683.19;4977115;28;45383;-55
2024/01/02 05:03:41;;;;;;;;;0.00;0.00;;;;;11.20;99.58;99705.97;4976667;28;46060;-55
2024/01/02 05:06:06;;;;;;;;;0.00;0.00;;;;;11.17;99.73;99701.00;4978941;28;45378;-51
2024/01/02 05:08:32;;;;;;;;;0.00;0.00;;;;;11.13;100.00;99686.41;4980707;28;44966;-56
2024/01/02 05:10:57;;;;;;;;;0.00;0.00;;;;;11.08;99.52;99684.25;4980461;28;45730;-57
2024/01/02 05:13:23;;;;;;;;;0.00;0.00;;;;;11.13;99.93;99697.03;4979883;28;46213;-48
2024/01/02 05:15:48;;;;;;;;;0.67;0.67;;;;;11.14;100.00;99706.69;4980140;28;46648;-56
2024/01/02 05:18:14;;;;;;;;;1.00;0.00;;;;;11.12;99.64;99677.56;4980152;28;45298;-56
2024/01/02 05:20:39;;;;;;;;;0.00;0.00;;;;;11.12;100.00;99706.00;4980418;28;45303;-52
2024/01/02 05:23:05;;;;;;;;;1.00;0.00;;;;;11.12;100.00;99680.22;4979883;28;47326;-48
2024/01/02 05:25:31;;;;;;;;;0.00;0.00;;;;;11.10;99.48;99694.72;4980148;28;45293;-52
2024/01/02 05:27:56;;;;;;;;;1.00;0.00;;;;;11.09;100.00;99679.78;4979993;28;45334;-55
2024/01/02 05:30:22;;;;;;;;;0.00;0.00;;;;;11.06;99.58;99686.25;4979986;28;45498;-58
2024/01/02 05:32:47;;;;;;;;;0.00;0.00;;;;;11.04;100.00;99688.28;4979925;28;45376;-45
2024/01/02 05:35:13;;;;;;;;;0.00;0.00;;;;;11.02;100.00;99671.66;4979773;28;45288;-49
2024/01/02 05:37:38;;;;;;;;;0.67;0.00;;;;;10.99;99.90;99670.16;4979829;28;45767;-50
2024/01/02 05:40:04;;;;;;;;;1.00;1.00;;;;;11.02;100.00;99676.13;4980177;28;45351;-56
2024/01/02 05:42:29;;;;;;;;;0.00;0.00;;;;;11.00;100.00;99663.03;4979550;28;46886;-53
2024/01/02 05:44:54;;;;;;;;;0.00;0.00;;;;;11.00;99.95;99676.31;4979455;28;45394;-55
2024/01/02 05:47:20;;;;;;;;;0.00;0.00;;;;;11.00;99.86;99660.34;4979898;28;45466;-56
2024/01/02 05:49:45;;;;;;;;;0.00;0.00;;;;;11.01;99.27;99675.31;4979864;28;45371;-56
2024/01/02 05:52:10;;;;;;;;;0.00;0.00;;;;;10.99;99.47;99674.66;4979740;28;45476;-50
2024/01/02 05:54:35;;;;;;;;;2.33;0.33;;;;;10.99;99.46;99670.16;4979256;28;47720;-46
2024/01/02 05:57:01;;;;;;;;;0.00;0.00;;;;;10.98;98.77;99667.69;4979742;28;45324;-54
2024/01/02 05:59:27;;;;;;;;;0.33;0.33;;;;;10.96;99.32;99677.69;4979787;28;45368;-49
2024/01/02 06:01:52;;;;;;;;;0.00;0.00;;;;;10.96;98.70;99680.34;4979772;28;47068;-52
2024/01/02 06:04:18;;;;;;;;;0.00;0.00;;;;;10.92;99.36;99671.88;4979379;28;45468;-56
2024/01/02 06:06:43;;;;;;;;;1.00;0.00;;;;;10.93;99.10;99678.03;4979521;28;45254;-47
2024/01/02 06:09:08;;;;;;;;;2.00;1.00;;;;;10.92;98.69;99666.56;4979612;28;45416;-57
2024/01/02 06:11:34;;;;;;;;;1.00;1.00;;;;;10.85;98.51;99654.94;4979273;28;46231;-54
2024/01/02 06:13:59;;;;;;;;;0.00;0.00;;;;;10.92;98.87;99665.72;4979020;28;45347;-56
2024/01/02 06:16:24;;;;;;;;;0.00;0.00;;;;;10.90;98.57;99655.25;4978309;28;45772;-44
2024/01/02 06:18:50;;;;;;;;;0.00;0.00;;;;;10.90;99.29;99665.06;4979018;28;45244;-55
2024/01/02 06:21:15;;;;;;;;;0.00;0.00;;;;;10.87;98.74;99658.28;4979080;28;45746;-55
2024/01/02 06:23:41;;;;;;;;;0.00;0.00;;;;;10.88;98.10;99637.81;4979195;28;45250;-55
2024/01/02 06:26:06;;;;;;;;;0.00;0.00;;;;;10.84;98.64;99655.13;4979151;28;45411;-52
2024/01/02 06:28:31;;;;;;;;;4.00;0.00;;;;;10.88;98.52;99653.78;4979252;28;45426;-54
2024/01/02 06:30:57;;;;;;;;;0.67;0.00;;;;;10.85;98.85;99654.94;4978828;28;45363;-57
2024/01/02 06:33:23;;;;;;;;;0.00;0.00;;;;;10.82;99.95;99643.81;4978960;28;45331;-53
2024/01/02 06:35:49;;;;;;;;;0.00;0.00;;;;;10.83;99.06;99651.66;4978889;28;45439;-42
2024/01/02 06:38:14;;;;;;;;;0.00;0.00;;;;;10.83;98.69;99654.31;4961682;28;45483;-46
2024/01/02 06:40:40;;;;;;;;;0.00;0.00;;;;;10.84;99.37;99639.16;4978588;28;50446;-42
2024/01/02 06:43:05;;;;;;;;;1.67;0.00;;;;;10.84;98.73;99633.84;4978660;28;45315;-43
2024/01/02 06:45:31;;;;;;;;;0.00;0.00;;;;;10.84;98.43;99633.84;4978727;28;45358;-43
2024/01/02 06:47:57;;;;;;;;;1.00;0.00;;;;;10.85;98.80;99638.16;4978596;28;45231;-43
2024/01/02 06:50:22;;;;;;;;;2.00;0.33;;;;;10.86;99.00;99610.53;4978015;28;46555;-44
2024/01/02 06:52:48;;;;;;;;;0.00;0.00;;;;;10.85;98.14;99620.34;4978377;28;45320;-56
2024/01/02 06:55:13;;;;;;;;;0.67;0.67;;;;;10.86;97.83;99642.47;4978423;28;45872;-45
2024/01/02 06:57:39;;;;;;;;;0.00;0.00;;;;;10.85;97.75;99627.53;4978648;28;45267;-57
2024/01/02 07:00:06;;;;;;;;;0.00;0.00;;;;;10.86;97.90;99634.47;4978385;28;45242;-50
2024/01/02 07:02:32;;;;;;;;;0.00;0.00;;;;;10.85;97.88;99632.84;4978648;28;45406;-43
2024/01/02 07:04:58;;;;;;;;;1.00;0.00;;;;;10.84;98.71;99612.56;4977864;28;45347;-44
2024/01/02 07:07:23;;;;;;;;;0.00;0.00;;;;;10.84;98.74;99618.72;4978424;28;45473;-56
2024/01/02 07:09:49;;;;;;;;;0.00;0.00;;;;;10.84;98.53;99608.06;4977840;28;46020;-52
2024/01/02 07:12:14;;;;;;;;;0.00;0.00;;;;;10.83;98.50;99609.09;4978209;28;45804;-49
2024/01/02 07:14:41;;;;;;;;;1.67;0.00;;;;;10.85;98.35;99615.03;4977807;28;45574;-53
2024/01/02 07:17:07;;;;;;;;;0.00;0.00;;;;;10.85;98.11;99623.03;4978523;28;45442;-54
2024/01/02 07:19:32;;;;;;;;;0.00;0.00;;;;;10.86;98.29;99615.88;4978200;28;46094;-50
2024/01/02 07:21:58;;;;;;;;;0.00;0.00;;;;;10.76;97.85;99591.34;4978083;28;45372;-43
2024/01/02 07:24:23;;;;;;;;;1.00;1.00;;;;;10.88;97.77;99598.72;4978198;28;45211;-44
2024/01/02 07:26:48;;;;;;;;;0.00;0.00;;;;;10.87;98.13;99599.75;4960878;28;45307;-48
2024/01/02 07:29:14;;;;;;;;;0.00;0.00;;;;;10.87;98.37;99610.38;4977297;28;46291;-43
2024/01/02 07:31:39;;;;;;;;;0.00;0.00;;;;;10.89;98.00;99610.19;4978165;28;45391;-43
2024/01/02 07:34:05;;;;;;;;;0.00;0.00;;;;;10.79;98.50;99590.97;4978256;28;45294;-50
2024/01/02 07:36:30;;;;;;;;;0.67;0.67;;;;;10.90;99.00;99595.88;4978241;28;45423;-54
2024/01/02 07:38:56;;;;;;;;;0.00;0.00;;;;;10.89;98.32;99599.56;4977878;28;45978;-56
2024/01/02 07:41:21;;;;;;;;;0.67;0.00;;;;;10.78;98.64;99590.13;4978020;28;45390;-55
2024/01/02 07:43:47;;;;;;;;;0.00;0.00;;;;;10.89;98.62;99612.84;4977938;28;45755;-57
2024/01/02 07:46:12;;;;;;;;;2.00;0.00;;;;;10.89;98.99;99611.03;4978040;28;45325;-57
2024/01/02 07:48:38;;;;;;;;;0.00;0.00;;;;;10.91;98.96;99605.50;4977637;28;47156;-43
2024/01/02 07:51:04;;;;;;;;;2.67;1.00;;;;;10.92;98.82;99599.22;4977783;28;45528;-42
2024/01/02 07:53:29;;;;;;;;;0.00;0.00;;;;;10.93;98.60;99600.84;4977824;28;45360;-53
2024/01/02 07:55:54;;;;;;;;;1.00;1.00;;;;;10.92;98.84;99594.72;4977735;28;45331;-42
2024/01/02 07:58:20;;;;;;;;;0.00;0.00;;;;;10.91;99.17;99598.38;4977605;28;45446;-46
2024/01/02 08:00:45;;;;;;;;;0.00;0.00;;;;;10.79;98.47;99583.84;4977460;28;45275;-54
2024/01/02 08:03:10;;;;;;;;;0.67;0.33;;;;;10.95;99.34;99612.97;4977785;28;45390;-45
2024/01/02 08:05:36;;;;;;;;;0.00;0.00;;;;;10.92;98.19;99584.06;4976591;28;45367;-43
2024/01/02 08:08:02;;;;;;;;;0.33;0.00;;;;;10.94;98.99;99598.00;4977472;28;45428;-50
2024/01/02 08:10:27;;;;;;;;;0.00;0.00;;;;;10.94;98.55;99592.69;4977492;28;45266;-43
2024/01/02 08:12:53;;;;;;;;;0.00;0.00;;;;;10.95;98.99;99586.34;4977500;28;45392;-42
2024/01/02 08:15:18;;;;;;;;;0.00;0.00;;;;;10.95;99.01;99589.03;4977386;28;45304;-43
2024/01/02 08:17:43;;;;;;;;;0.33;0.33;;;;;10.94;98.40;99562.59;4977383;28;46072;-53
2024/01/02 08:20:10;;;;;;;;;0.00;0.00;;;;;10.94;98.74;99574.06;4977171;28;45379;-44
2024/01/02 08:22:35;;;;;;;;;0.00;0.00;;;;;10.96;98.27;99569.41;4977367;28;45308;-42
2024/01/02 08:25:01;;;;;;;;;0.33;0.33;;;;;10.98;98.66;99577.19;4977530;28;45371;-47
2024/01/02 08:27:26;;;;;;;;;0.00;0.00;;;;;10.98;99.12;99561.25;4977152;28;46627;-46
2024/01/02 08:29:52;;;;;;;;;0.00;0.00;;;;;10.98;99.27;99594.00;4977094;28;45419;-42
2024/01/02 08:32:20;;;;;;;;;3.67;0.67;;;;;11.01;99.31;99587.50;4977291;28;45527;-56
2024/01/02 08:34:45;;;;;;;;;1.00;0.00;;;;;11.02;98.31;99577.69;4977119;28;45336;-57
2024/01/02 08:37:10;;;;;;;;;0.00;0.00;;;;;11.02;98.78;99578.50;4976504;28;46327;-57
2024/01/02 08:39:36;;;;;;;;;0.67;0.00;;;;;11.02;98.36;99567.84;4975994;28;45417;-57
2024/01/02 08:42:02;;;;;;;;;0.00;0.00;;;;;11.03;98.50;99574.00;4977068;28;45380;-54
2024/01/02 08:44:27;;;;;;;;;0.00;0.00;;;;;11.05;98.37;99556.03;4976985;28;45330;-52
2024/01/02 08:46:53;;;;;;;;;0.00;0.00;;;;;11.05;99.13;99569.34;4976581;28;50335;-46
2024/01/02 08:49:18;;;;;;;;;2.00;0.00;;;;;11.02;98.38;99546.56;4958166;28;47086;-50
2024/01/02 08:51:44;;;;;;;;;0.33;0.33;;;;;11.07;98.18;99554.84;4972474;28;45452;-47
2024/01/02 08:54:09;;;;;;;;;0.00;0.00;;;;;11.10;98.75;99551.00;4974156;28;45395;-47
2024/01/02 08:56:34;;;;;;;;;0.00;0.00;;;;;11.12;98.77;99559.63;4974132;28;46044;-45
2024/01/02 08:59:00;;;;;;;;;0.00;0.00;;;;;11.11;98.15;99540.16;4974219;28;45454;-43
2024/01/02 09:01:26;;;;;;;;;0.00;0.00;;;;;11.10;98.71;99543.84;4974023;28;45186;-45
2024/01/02 09:03:51;;;;;;;;;0.67;0.00;;;;;11.09;98.76;99547.53;4973973;28;45426;-48
2024/01/02 09:06:20;;;;;;;;;0.00;0.00;;;;;11.11;98.88;99531.34;4972865;28;46135;-45
2024/01/02 09:08:46;;;;;;;;;0.00;0.00;;;;;11.09;98.99;99528.88;4973757;28;45520;-48
2024/01/02 09:11:15;;;;;;;;;0.67;0.67;;;;;11.14;99.13;99523.03;4974061;28;45444;-53
2024/01/02 09:13:40;;;;;;;;;0.00;0.00;;;;;11.15;99.16;99543.31;4974144;28;45409;-50
2024/01/02 09:16:08;;;;;;;;;2.00;0.33;;;;;11.14;99.30;99531.84;4973487;28;45937;-55
2024/01/02 09:18:33;;;;;;;;;0.00;0.00;;;;;11.14;99.42;99520.38;4974509;28;45498;-45
2024/01/02 09:20:58;;;;;;;;;0.00;0.00;;;;;11.14;99.66;99513.19;4973888;28;45389;-46
2024/01/02 09:23:24;;;;;;;;;2.00;0.00;;;;;11.18;99.85;99534.97;4973425;28;45417;-42
2024/01/02 09:25:50;;;;;;;;;0.00;0.00;;;;;11.20;99.08;99517.78;4973777;28;45469;-42
2024/01/02 09:28:17;;;;;;;;;0.00;0.00;;;;;11.15;99.69;99517.50;4973060;28;45442;-42
2024/01/02 09:30:43;;;;;;;;;0.00;0.00;;;;;11.23;99.58;99517.44;4973858;28;45558;-43
2024/01/02 09:33:09;;;;;;;;;0.00;0.00;;;;;11.26;99.55;99552.72;4972734;28;45215;-44
2024/01/02 09:35:36;;;;;;;;;0.67;0.67;;;;;11.25;99.58;99511.94;4973527;28;46176;-43
2024/01/02 09:38:05;;;;;;;;;0.00;0.00;;;;;11.28;99.33;99519.56;4974015;28;45655;-43
2024/01/02 09:40:42;;;;;;;;;0.00;0.00;;;;;11.32;99.78;99517.34;4973882;28;45350;-42
2024/01/02 09:43:32;;;;;;;;;0.00;0.00;;;;;11.36;99.42;99510.66;4973864;28;45516;-42
2024/01/02 09:46:06;;;;;;;;;1.00;0.00;;;;;11.38;99.52;99524.63;4973179;28;45460;-46
2024/01/02 09:48:38;;;;;;;;;2.00;0.00;;;;;11.39;98.98;99502.31;4973548;28;45435;-45
2024/01/02 09:51:23;;;;;;;;;0.00;0.00;;;;;11.40;99.18;99499.47;4974078;28;45437;-42
2024/01/02 09:54:13;;;;;;;;;0.00;0.00;;;;;11.44;99.07;99503.41;4976434;28;45467;-43
2024/01/02 09:56:45;;;;;;;;;1.33;0.00;;;;;11.45;98.79;99499.75;4976541;28;45557;-44
2024/01/02 09:59:22;;;;;;;;;0.00;0.00;;;;;11.47;99.10;99491.59;4976156;28;45271;-47
2024/01/02 10:02:15;;;;;;;;;0.00;0.00;;;;;11.48;98.75;99515.34;4976243;28;45399;-57
2024/01/02 10:05:14;;;;;;;;;0.00;0.00;;;;;11.49;99.46;99497.53;4976737;28;45513;-57
2024/01/02 10:08:01;;;;;;;;;0.00;0.00;;;;;11.51;99.39;99500.88;4975489;28;45900;-56
2024/01/02 10:10:47;;;;;;;;;0.33;0.00;;;;;11.52;99.24;99505.16;4975435;28;45515;-55
2024/01/02 10:13:26;;;;;;;;;0.00;0.00;;;;;11.54;98.60;99507.63;4976302;28;45493;-57
2024/01/02 10:16:14;;;;;;;;;0.00;0.00;;;;;11.49;98.82;99486.88;4975125;28;45409;-50
2024/01/02 10:19:05;;;;;;;;;0.00;0.00;;;;;11.55;98.57;99498.66;4975720;28;46361;-55
2024/01/02 10:21:40;;;;;;;;;0.00;0.00;;;;;11.56;99.01;99505.63;4976342;28;45607;-55
2024/01/02 10:24:24;;;;;;;;;0.00;0.00;;;;;11.56;98.51;99500.31;4979055;28;45262;-44
2024/01/02 10:27:04;;;;;;;;;0.00;0.00;;;;;11.56;98.70;99513.63;4976811;28;45369;-57
2024/01/02 10:29:55;;;;;;;;;0.00;0.00;;;;;11.59;98.44;99476.81;4974444;28;46266;-54
2024/01/02 10:32:50;;;;;;;;;2.00;0.00;;;;;11.59;98.07;99484.78;4971076;28;45387;-57
2024/01/02 10:35:22;;;;;;;;;0.00;0.00;;;;;11.59;98.66;99486.63;4977718;28;45491;-57
2024/01/02 10:38:05;;;;;;;;;1.00;0.67;;;;;11.60;98.74;99485.63;4978814;28;45497;-54
2024/01/02 10:40:31;;;;;;;;;0.00;0.00;;;;;11.54;98.10;99471.19;4977868;28;45342;-57
2024/01/02 10:43:13;;;;;;;;;0.00;0.00;;;;;11.63;98.52;99482.56;4977499;28;45472;-57
2024/01/02 10:45:52;;;;;;;;;0.00;0.00;;;;;11.60;98.40;99465.13;4975631;28;45421;-42
2024/01/02 10:48:54;;;;;;;;;0.00;0.00;;;;;11.61;98.35;99477.44;4976172;28;45277;-40
2024/01/02 10:51:37;;;;;;;;;0.00;0.00;;;;;11.62;98.64;99475.59;4968170;28;46069;-42
2024/01/02 10:54:05;;;;;;;;;0.00;0.00;;;;;11.52;97.93;99459.06;4975103;28;45375;-57
2024/01/02 10:57:05;;;;;;;;;0.33;0.33;;;;;11.62;98.34;99468.41;4975013;28;45544;-57
2024/01/02 10:59:42;;;;;;;;;1.00;1.00;;;;;11.60;97.84;99465.13;4975425;28;45330;-46
2024/01/02 11:02:40;;;;;;;;;0.00;0.00;;;;;11.58;98.40;99461.81;4975040;28;45464;-51
2024/01/02 11:05:25;;;;;;;;;0.00;0.00;;;;;11.56;98.42;99449.72;4934026;28;45451;-45
2024/01/02 11:08:01;;;;;;;;;0.00;0.00;;;;;11.57;99.17;99460.16;4934496;28;45832;-54
2024/01/02 11:10:29;;;;;;;;;1.00;1.00;;;;;11.56;98.91;99452.38;4934349;28;45514;-50
2024/01/02 11:13:01;;;;;;;;;0.67;0.67;;;;;11.59;99.03;99452.84;4934118;28;45373;-52
2024/01/02 11:15:28;;;;;;;;;1.00;0.67;;;;;11.63;98.74;99447.94;4933639;28;45532;-57
2024/01/02 11:17:57;;;;;;;;;0.67;0.00;;;;;11.63;98.90;99443.47;4936581;28;45411;-53
2024/01/02 11:20:30;;;;;;;;;0.67;0.00;;;;;11.63;98.17;99443.47;4936870;28;45354;-58
2024/01/02 11:23:02;;;;;;;;;0.00;0.00;;;;;11.64;98.40;99444.28;4921014;28;46107;-54
2024/01/02 11:25:32;;;;;;;;;0.00;0.00;;;;;11.63;98.32;99458.59;4934109;28;45570;-56
2024/01/02 11:28:00;;;;;;;;;2.00;0.33;;;;;11.62;97.89;99415.16;4934185;28;45490;-43
2024/01/02 11:30:33;;;;;;;;;1.00;1.00;;;;;11.64;97.91;99423.78;4933583;28;45357;-45
2024/01/02 11:32:58;;;;;;;;;2.00;0.67;;;;;11.64;98.42;99437.13;4933665;28;45427;-44